Terminal Aerodrome Forecast
Issued by NWS

Home | Current Version | Previous Version | Text Only | Print | Product List | Glossary On
Versions: 1 2 3 4 5 6 7 8 9 10 11 12 13 14
000
FTUS42 KTBW 261139
TAFPGD
TAF
KPGD 261139Z 2612/2712 10006KT P6SM SCT250
     FM262000 12011G16KT P6SM VCTS SCT040CB BKN250
     FM270200 06007KT P6SM FEW035 SCT250=

USA.gov is the U.S. government's official web portal to all federal, state and local government web resources and services.